Time;durP1;ratioP1;P1;durP2;ratioP2;P2;SDS_P1;SDS_P2;PMS_P1;PMS_P2;Temp;Humidity;BMP_temperature;BMP_pressure;BME280_temperature;BME280_humidity;BME280_pressure;Samples;Min_cycle;Max_cycle;Signal;HPM_P1;HPM_P2
2022/02/24 00:01:02;;;;;;;7.40;5.80;;;;;;;0.30;79.55;98129.10;109781;1251;68921;-62
2022/02/24 00:03:34;;;;;;;7.10;5.40;;;;;;;0.30;79.44;98125.47;109752;1251;59736;-64
2022/02/24 00:06:04;;;;;;;7.50;5.60;;;;;;;0.31;79.35;98127.33;109608;1251;59747;-63
2022/02/24 00:08:34;;;;;;;11.00;7.80;;;;;;;0.30;79.94;98123.77;109679;1251;71520;-63
2022/02/24 00:11:05;;;;;;;7.70;5.90;;;;;;;0.27;80.28;98121.77;109711;1251;67612;-64
2022/02/24 00:13:36;;;;;;;9.10;7.00;;;;;;;0.29;79.60;98126.36;109751;1251;68623;-63
2022/02/24 00:16:06;;;;;;;6.90;6.20;;;;;;;0.32;79.62;98127.66;109620;1251;59664;-62
2022/02/24 00:18:35;;;;;;;;;;;;;;;0.32;79.63;98126.80;109864;1251;59761;-63
2022/02/24 00:21:06;;;;;;;9.10;5.80;;;;;;;0.32;79.68;98124.23;109707;1250;71425;-62
2022/02/24 00:23:36;;;;;;;10.20;6.30;;;;;;;0.31;79.50;98121.84;109373;1251;67783;-64
2022/02/24 00:26:08;;;;;;;9.10;6.10;;;;;;;0.33;79.48;98126.63;109663;1251;68607;-65
2022/02/24 00:28:38;;;;;;;7.60;5.90;;;;;;;0.33;79.37;98126.79;109716;1250;59708;-63
2022/02/24 00:31:09;;;;;;;7.90;6.00;;;;;;;0.32;79.31;98120.63;109458;1251;59759;-65
2022/02/24 00:33:39;;;;;;;9.30;6.50;;;;;;;0.33;79.27;98127.48;109584;1251;71366;-62
2022/02/24 00:36:10;;;;;;;10.00;7.80;;;;;;;0.34;79.15;98131.73;109738;1251;68381;-64
2022/02/24 00:38:40;;;;;;;7.50;6.00;;;;;;;0.32;79.40;98132.63;109569;1251;69301;-61
2022/02/24 00:41:12;;;;;;;8.40;6.60;;;;;;;0.32;79.31;98136.75;109621;1251;59740;-62
2022/02/24 00:43:43;;;;;;;12.90;7.70;;;;;;;0.34;79.49;98135.36;109548;1251;59655;-62
2022/02/24 00:46:14;;;;;;;9.80;7.80;;;;;;;0.33;79.43;98132.45;109643;1251;70763;-62
2022/02/24 00:48:45;;;;;;;9.50;6.80;;;;;;;0.34;79.39;98139.79;109698;1251;68399;-62
2022/02/24 00:51:15;;;;;;;7.60;6.10;;;;;;;0.33;79.67;98137.92;109548;1251;68795;-61
2022/02/24 00:53:45;;;;;;;10.20;8.10;;;;;;;0.32;79.47;98138.29;109757;1251;59721;-63
2022/02/24 00:56:16;;;;;;;10.30;7.10;;;;;;;0.33;79.38;98142.22;109739;1250;59785;-63
2022/02/24 00:58:46;;;;;;;11.30;9.00;;;;;;;0.32;79.50;98140.52;109680;1251;71540;-65
2022/02/24 01:01:17;;;;;;;7.70;5.40;;;;;;;0.28;80.23;98141.63;109590;1251;68595;-63
2022/02/24 01:03:47;;;;;;;;;;;;;;;0.30;79.49;98142.63;109651;1251;68517;-66
2022/02/24 01:06:19;;;;;;;8.70;7.00;;;;;;;0.32;79.46;98138.83;109743;1251;59704;-63
2022/02/24 01:08:49;;;;;;;9.60;6.50;;;;;;;0.32;79.48;98134.52;109740;1251;59667;-63
2022/02/24 01:11:20;;;;;;;10.70;8.50;;;;;;;0.33;79.41;98132.63;109798;1251;70540;-61
2022/02/24 01:13:50;;;;;;;;;;;;;;;0.32;79.61;98135.19;109630;1251;68001;-62
2022/02/24 01:16:20;;;;;;;7.80;6.30;;;;;;;0.30;79.92;98139.54;109806;1250;68579;-64
2022/02/24 01:18:50;;;;;;;;;;;;;;;0.29;80.13;98150.89;109772;1251;59684;-61
2022/02/24 01:21:22;;;;;;;9.30;6.30;;;;;;;0.27;80.23;98155.20;109803;1251;59714;-61
2022/02/24 01:23:52;;;;;;;9.00;6.20;;;;;;;0.26;79.60;98150.75;109856;1251;70755;-61
2022/02/24 01:26:24;;;;;;;10.40;7.90;;;;;;;0.26;79.95;98153.15;109663;1251;68494;-64
2022/02/24 01:28:54;;;;;;;14.60;9.30;;;;;;;0.29;79.56;98146.77;109624;1252;68660;-63
2022/02/24 01:31:25;;;;;;;11.20;8.50;;;;;;;0.27;79.65;98150.73;109787;1251;59766;-66
2022/02/24 01:33:55;;;;;;;;;;;;;;;0.25;79.85;98150.25;109818;1250;59692;-62
2022/02/24 01:36:27;;;;;;;10.00;6.50;;;;;;;0.27;79.49;98147.31;109756;1251;71567;-63
2022/02/24 01:38:57;;;;;;;10.00;7.40;;;;;;;0.25;79.68;98150.09;109772;1250;66825;-62
2022/02/24 01:41:28;;;;;;;12.30;7.80;;;;;;;0.25;79.51;98147.52;109724;1251;69361;-63
2022/02/24 01:44:06;;;;;;;;;;;;;;;0.23;79.55;98150.13;109822;1251;59718;-62
2022/02/24 01:46:37;;;;;;;9.10;6.30;;;;;;;0.20;79.51;98146.92;109809;1251;59677;-62
2022/02/24 01:49:07;;;;;;;10.50;7.70;;;;;;;0.19;79.47;98144.38;109722;1251;71536;-64
2022/02/24 01:51:38;;;;;;;10.00;6.70;;;;;;;0.15;79.95;98142.41;109779;1251;68655;-64
2022/02/24 01:54:09;;;;;;;12.80;8.50;;;;;;;0.12;80.13;98146.23;109747;1250;69637;-65
2022/02/24 01:56:39;;;;;;;13.00;9.70;;;;;;;0.04;81.33;98145.20;109680;1251;59771;-63
2022/02/24 01:59:10;;;;;;;11.80;7.90;;;;;;;-0.04;82.10;98145.35;109808;1251;59714;-64
2022/02/24 02:01:40;;;;;;;15.10;9.30;;;;;;;-0.03;81.62;98148.56;109801;1251;71560;-65
2022/02/24 02:04:11;;;;;;;14.70;9.70;;;;;;;-0.02;81.45;98147.86;109796;1251;68554;-64
2022/02/24 02:06:41;;;;;;;13.90;9.20;;;;;;;-0.05;81.84;98142.96;109830;1250;69296;-60
2022/02/24 02:09:11;;;;;;;12.80;8.50;;;;;;;-0.08;82.26;98140.95;109675;1251;59786;-63
2022/02/24 02:11:41;;;;;;;13.90;9.70;;;;;;;-0.12;82.28;98143.09;109674;1251;59701;-63
2022/02/24 02:14:12;;;;;;;13.90;9.30;;;;;;;-0.15;82.36;98143.50;109730;1251;71543;-62
2022/02/24 02:16:50;;;;;;;12.60;8.40;;;;;;;-0.16;81.92;98145.20;109889;1250;68603;-62
2022/02/24 02:19:20;;;;;;;15.60;10.00;;;;;;;-0.15;81.94;98146.39;109697;1251;68527;-63
2022/02/24 02:21:50;;;;;;;12.90;8.60;;;;;;;-0.17;82.09;98152.77;109623;1251;59783;-63
2022/02/24 02:24:20;;;;;;;14.40;10.10;;;;;;;-0.19;82.11;98155.20;109832;1251;60211;-64
2022/02/24 02:26:50;;;;;;;15.70;9.50;;;;;;;-0.21;82.45;98156.10;109735;1251;71032;-63
2022/02/24 02:29:20;;;;;;;13.00;9.60;;;;;;;-0.24;82.45;98154.96;109710;1251;68587;-62
2022/02/24 02:31:50;;;;;;;;;;;;;;;-0.25;82.80;98158.23;109823;1250;69449;-65
2022/02/24 02:34:20;;;;;;;11.80;7.90;;;;;;;-0.22;82.45;98156.63;109833;1251;59710;-62
2022/02/24 02:36:50;;;;;;;14.30;9.00;;;;;;;-0.19;82.11;98159.17;109780;1251;59720;-61
2022/02/24 02:39:20;;;;;;;12.30;7.80;;;;;;;-0.21;82.23;98160.90;109759;1251;70406;-62
2022/02/24 02:41:50;;;;;;;11.10;7.50;;;;;;;-0.18;81.78;98158.95;109672;1251;68598;-61
2022/02/24 02:44:20;;;;;;;12.70;7.60;;;;;;;-0.16;81.81;98163.02;109218;1250;836547;-62
2022/02/24 02:46:51;;;;;;;13.60;9.00;;;;;;;-0.15;82.34;98166.77;109684;1250;59800;-63
2022/02/24 02:49:21;;;;;;;11.90;8.60;;;;;;;-0.14;82.08;98165.23;109719;1249;59762;-62
2022/02/24 02:51:52;;;;;;;12.80;8.40;;;;;;;-0.18;81.76;98169.75;109731;1251;70690;-64
2022/02/24 02:54:22;;;;;;;12.40;7.50;;;;;;;-0.17;81.63;98170.94;109601;1250;68896;-64
2022/02/24 02:56:52;;;;;;;15.00;9.40;;;;;;;-0.18;82.33;98166.33;109703;1251;69383;-63
2022/02/24 02:59:22;;;;;;;12.20;8.90;;;;;;;-0.17;81.93;98171.63;109666;1251;59724;-61
2022/02/24 03:01:54;;;;;;;13.00;8.00;;;;;;;-0.14;81.67;98175.85;109610;1251;59643;-63
2022/02/24 03:04:25;;;;;;;10.40;6.90;;;;;;;-0.10;81.35;98175.09;109688;1250;70762;-63
2022/02/24 03:06:55;;;;;;;10.10;6.80;;;;;;;-0.06;80.89;98172.27;109674;1251;68150;-63
2022/02/24 03:09:24;;;;;;;15.40;8.70;;;;;;;-0.05;80.60;98171.91;109780;1250;68252;-62
2022/02/24 03:11:54;;;;;;;15.30;9.30;;;;;;;-0.05;80.89;98172.10;109525;1251;59776;-64
2022/02/24 03:14:24;;;;;;;12.10;8.00;;;;;;;-0.05;81.14;98175.69;109656;1251;59739;-62
2022/02/24 03:16:54;;;;;;;14.40;8.40;;;;;;;-0.04;81.21;98172.92;109815;1251;71364;-61
2022/02/24 03:19:26;;;;;;;16.00;9.40;;;;;;;-0.01;80.98;98179.39;109648;1253;68456;-64
2022/02/24 03:21:56;;;;;;;12.30;7.70;;;;;;;0.01;81.01;98182.60;109583;1250;68782;-64
2022/02/24 03:24:26;;;;;;;8.20;5.40;;;;;;;0.04;80.57;98187.17;109550;1251;59774;-65
2022/02/24 03:26:55;;;;;;;14.90;9.50;;;;;;;0.06;80.47;98192.45;109704;1251;59741;-63
2022/02/24 03:29:25;;;;;;;12.30;7.60;;;;;;;0.05;80.76;98194.86;109843;1251;71491;-64
2022/02/24 03:31:56;;;;;;;9.40;6.90;;;;;;;0.08;80.44;98196.71;109851;1250;68446;-62
2022/02/24 03:34:25;;;;;;;;;;;;;;;0.10;80.24;98195.29;109663;1251;68447;-62
2022/02/24 03:36:57;;;;;;;8.30;5.30;;;;;;;0.13;80.07;98193.35;109596;1249;59792;-63
2022/02/24 03:39:27;;;;;;;;;;;;;;;0.13;79.98;98197.29;109780;1250;59676;-63
2022/02/24 03:41:58;;;;;;;13.30;7.70;;;;;;;0.15;79.68;98203.11;109644;1251;72033;-63
2022/02/24 03:44:28;;;;;;;13.40;8.50;;;;;;;0.10;80.28;98199.07;109556;1251;67744;-64
2022/02/24 03:47:00;;;;;;;14.70;8.60;;;;;;;0.05;80.57;98203.45;109796;1250;68695;-63
2022/02/24 03:49:47;;;;;;;8.80;5.70;;;;;;;-0.01;80.86;98198.74;109702;1250;59793;-62
2022/02/24 03:52:18;;;;;;;13.50;8.30;;;;;;;0.02;80.27;98199.04;109738;1250;59702;-62
2022/02/24 03:54:48;;;;;;;8.20;5.60;;;;;;;0.03;80.32;98201.41;109703;1250;71639;-64
2022/02/24 03:57:20;;;;;;;7.90;5.90;;;;;;;0.07;80.08;98205.65;109481;1250;68041;-66
2022/02/24 03:59:50;;;;;;;9.90;6.50;;;;;;;0.09;79.98;98202.16;109617;1251;69253;-65
2022/02/24 04:02:20;;;;;;;8.50;4.60;;;;;;;0.11;79.99;98206.08;109603;1251;59773;-63
2022/02/24 04:04:51;;;;;;;11.70;7.90;;;;;;;0.13;79.63;98205.36;109640;1251;59729;-65
2022/02/24 04:07:21;;;;;;;7.80;5.30;;;;;;;0.11;79.88;98207.79;109853;1250;70777;-61
2022/02/24 04:09:51;;;;;;;;;;;;;;;0.13;79.40;98211.86;109841;1250;68483;-62
2022/02/24 04:12:21;;;;;;;14.20;8.20;;;;;;;0.11;80.58;98212.60;109836;1250;69433;-61
2022/02/24 04:14:51;;;;;;;11.70;8.20;;;;;;;0.09;80.68;98208.67;109586;1250;59731;-64
2022/02/24 04:17:22;;;;;;;8.80;6.30;;;;;;;0.10;80.46;98214.33;109751;1250;59680;-61
2022/02/24 04:19:52;;;;;;;9.30;6.00;;;;;;;0.09;80.54;98214.17;110050;1250;70544;-63
2022/02/24 04:22:22;;;;;;;11.10;8.90;;;;;;;0.11;79.72;98217.21;109752;1250;67703;-63
2022/02/24 04:24:51;;;;;;;13.50;9.00;;;;;;;0.11;79.75;98217.39;109617;1251;68723;-64
2022/02/24 04:27:21;;;;;;;15.80;9.50;;;;;;;0.11;80.51;98219.27;109635;1250;59755;-62
2022/02/24 04:29:51;;;;;;;13.70;8.10;;;;;;;0.10;80.62;98221.87;109997;1248;59727;-62
2022/02/24 04:32:21;;;;;;;9.20;5.30;;;;;;;0.11;80.17;98225.63;109886;1249;71676;-62
2022/02/24 04:34:50;;;;;;;7.90;5.70;;;;;;;0.13;79.82;98222.48;109978;1250;68692;-61
2022/02/24 04:37:21;;;;;;;;;;;;;;;0.13;79.74;98228.82;109791;1250;68651;-62
2022/02/24 04:39:51;;;;;;;14.80;9.10;;;;;;;0.13;79.70;98226.43;109811;1250;60143;-63
2022/02/24 04:42:20;;;;;;;13.90;8.30;;;;;;;0.10;80.39;98230.44;109845;1249;59740;-64
2022/02/24 04:44:50;;;;;;;10.10;6.70;;;;;;;0.10;79.86;98235.06;109961;1250;70810;-64
2022/02/24 04:47:20;;;;;;;13.10;8.40;;;;;;;0.11;80.08;98237.96;109932;1250;67916;-64
2022/02/24 04:49:49;;;;;;;12.10;7.60;;;;;;;0.09;80.87;98241.23;109847;1249;68736;-64
2022/02/24 04:52:20;;;;;;;11.80;7.20;;;;;;;0.12;80.02;98241.88;109857;1250;59726;-62
2022/02/24 04:54:49;;;;;;;13.40;8.70;;;;;;;0.16;79.39;98246.95;109652;1251;59651;-63
2022/02/24 04:57:19;;;;;;;;;;;;;;;0.16;79.35;98244.91;109871;1250;70666;-62
2022/02/24 04:59:49;;;;;;;20.60;11.60;;;;;;;0.16;79.38;98251.58;109852;1250;67861;-63
2022/02/24 05:02:19;;;;;;;13.80;10.10;;;;;;;0.16;79.29;98253.98;109919;1250;69491;-63
2022/02/24 05:04:49;;;;;;;12.20;9.30;;;;;;;0.15;79.36;98257.09;109785;1250;59730;-63
2022/02/24 05:07:22;;;;;;;17.30;10.70;;;;;;;0.15;79.66;98252.11;109800;1250;59665;-64
2022/02/24 05:09:52;;;;;;;16.50;11.80;;;;;;;0.14;80.03;98251.79;109770;1250;70048;-62
2022/02/24 05:12:22;;;;;;;13.70;9.10;;;;;;;0.14;79.73;98249.56;109816;1250;67938;-63
2022/02/24 05:14:51;;;;;;;16.30;10.50;;;;;;;0.13;80.41;98251.64;109876;1250;68761;-66
2022/02/24 05:17:24;;;;;;;16.00;10.10;;;;;;;0.09;80.68;98253.77;109986;1249;59781;-65
2022/02/24 05:19:53;;;;;;;13.60;8.70;;;;;;;0.06;80.95;98255.88;109774;1250;59828;-65
2022/02/24 05:22:24;;;;;;;14.60;10.70;;;;;;;0.05;80.80;98255.73;109696;1251;70929;-63
2022/02/24 05:24:54;;;;;;;14.50;9.20;;;;;;;0.01;81.24;98254.59;109832;1250;68664;-62
2022/02/24 05:27:23;;;;;;;11.10;7.40;;;;;;;0.01;80.71;98255.11;109868;1250;69749;-61
2022/02/24 05:29:53;;;;;;;9.30;7.10;;;;;;;0.03;80.17;98261.58;109876;1250;59759;-62
2022/02/24 05:32:23;;;;;;;12.30;7.60;;;;;;;0.06;79.89;98261.52;109817;1249;59687;-64
2022/02/24 05:34:53;;;;;;;14.20;8.70;;;;;;;0.09;80.11;98261.64;109915;1250;71612;-63
2022/02/24 05:37:26;;;;;;;10.70;6.60;;;;;;;0.12;80.08;98260.40;109926;1250;67635;-64
2022/02/24 05:39:56;;;;;;;10.40;6.50;;;;;;;0.15;79.85;98261.37;109815;1249;69490;-61
2022/02/24 05:42:26;;;;;;;15.20;9.90;;;;;;;0.20;79.57;98263.69;109927;1249;59687;-61
2022/02/24 05:44:55;;;;;;;11.30;6.30;;;;;;;0.20;80.60;98269.02;109903;1249;59674;-62
2022/02/24 05:47:25;;;;;;;12.80;8.10;;;;;;;0.25;79.72;98268.55;109804;1249;70278;-61
2022/02/24 05:49:55;;;;;;;12.40;7.60;;;;;;;0.31;79.64;98273.27;109865;1250;67971;-63
2022/02/24 05:52:24;;;;;;;8.90;5.70;;;;;;;0.36;79.55;98279.17;109781;1250;69515;-61
2022/02/24 05:54:53;;;;;;;8.10;5.90;;;;;;;0.41;79.37;98276.85;109673;1251;60207;-62
2022/02/24 05:57:23;;;;;;;12.90;8.00;;;;;;;0.45;79.20;98279.84;109899;1249;59676;-63
2022/02/24 05:59:53;;;;;;;14.70;9.50;;;;;;;0.48;79.15;98281.02;109872;1250;71698;-62
2022/02/24 06:02:22;;;;;;;11.70;8.30;;;;;;;0.49;79.23;98281.48;109896;1248;68648;-63
2022/02/24 06:04:53;;;;;;;8.80;5.80;;;;;;;0.50;79.13;98285.42;109852;1250;69490;-63
2022/02/24 06:07:23;;;;;;;9.50;6.30;;;;;;;0.52;79.00;98285.23;109823;1250;59824;-63
2022/02/24 06:09:52;;;;;;;10.60;6.60;;;;;;;0.54;78.83;98288.27;109942;1250;59657;-61
2022/02/24 06:12:22;;;;;;;15.60;10.60;;;;;;;0.57;78.92;98287.88;109822;1250;70692;-62
2022/02/24 06:14:52;;;;;;;15.30;9.90;;;;;;;0.57;79.20;98287.02;109984;1250;67816;-62
2022/02/24 06:17:22;;;;;;;11.60;7.70;;;;;;;0.58;79.08;98289.75;109907;1248;68677;-65
2022/02/24 06:19:54;;;;;;;8.10;5.70;;;;;;;0.62;78.83;98290.87;109919;1249;59673;-63
2022/02/24 06:22:24;;;;;;;9.10;6.90;;;;;;;0.66;78.73;98294.05;109784;1250;59771;-65
2022/02/24 06:24:54;;;;;;;8.50;5.50;;;;;;;0.70;78.59;98299.45;109869;1250;71767;-62
2022/02/24 06:27:24;;;;;;;10.60;5.80;;;;;;;0.74;78.43;98296.64;109855;1250;67807;-63
2022/02/24 06:29:56;;;;;;;9.30;7.00;;;;;;;0.78;78.39;98294.31;109787;1249;68673;-63
2022/02/24 06:32:26;;;;;;;11.30;7.20;;;;;;;0.82;78.39;98298.89;109815;1250;60079;-65
2022/02/24 06:34:57;;;;;;;11.20;7.00;;;;;;;0.86;78.43;98300.17;109878;1250;59692;-63
2022/02/24 06:37:29;;;;;;;10.70;7.60;;;;;;;0.88;78.44;98303.73;109725;1249;70834;-63
2022/02/24 06:39:59;;;;;;;10.30;7.80;;;;;;;0.90;78.51;98307.13;110022;1250;68580;-64
2022/02/24 06:42:28;;;;;;;15.20;10.20;;;;;;;0.91;78.55;98304.55;109805;1249;69814;-61
2022/02/24 06:44:59;;;;;;;13.60;8.70;;;;;;;0.89;78.73;98306.31;109787;1249;59705;-60
2022/02/24 06:47:29;;;;;;;13.40;9.90;;;;;;;0.89;78.57;98309.90;109885;1250;59689;-62
2022/02/24 06:50:02;;;;;;;13.00;9.00;;;;;;;0.84;79.18;98311.20;109605;1251;71515;-63
2022/02/24 06:52:32;;;;;;;14.00;9.40;;;;;;;0.86;78.69;98307.04;109842;1250;67987;-63
2022/02/24 06:55:04;;;;;;;13.00;10.30;;;;;;;0.88;78.56;98307.36;109802;1250;69457;-61
2022/02/24 06:57:43;;;;;;;11.60;7.50;;;;;;;0.82;78.87;98306.79;109803;1250;59687;-64
2022/02/24 07:00:15;;;;;;;16.30;10.70;;;;;;;0.83;78.68;98311.92;109676;1250;59653;-65
2022/02/24 07:02:45;;;;;;;16.20;10.50;;;;;;;0.79;78.68;98313.87;109710;1251;71549;-61
2022/02/24 07:05:16;;;;;;;15.00;9.20;;;;;;;0.84;78.59;98315.84;109841;1250;68543;-62
2022/02/24 07:07:46;;;;;;;19.90;11.80;;;;;;;0.90;78.62;98314.02;109828;1250;69326;-62
2022/02/24 07:10:16;;;;;;;16.50;10.50;;;;;;;0.86;78.50;98314.24;109741;1250;59726;-61
2022/02/24 07:12:45;;;;;;;17.20;12.00;;;;;;;0.82;78.75;98313.32;109901;1250;59680;-63
2022/02/24 07:15:15;;;;;;;19.10;11.60;;;;;;;0.76;79.04;98307.92;109923;1248;71603;-61
2022/02/24 07:17:46;;;;;;;16.10;11.20;;;;;;;0.75;79.03;98308.10;109713;1250;67820;-63
2022/02/24 07:20:17;;;;;;;20.30;12.10;;;;;;;0.81;78.82;98308.67;109793;1250;70109;-63
2022/02/24 07:22:47;;;;;;;18.30;12.00;;;;;;;0.86;78.84;98313.55;109768;1250;59759;-64
2022/02/24 07:25:16;;;;;;;15.50;9.90;;;;;;;0.92;78.80;98318.08;109789;1249;59740;-62
2022/02/24 07:27:46;;;;;;;18.70;12.20;;;;;;;0.96;78.80;98319.19;109902;1250;71680;-62
2022/02/24 07:30:16;;;;;;;17.10;10.70;;;;;;;0.96;79.51;98324.02;109587;1250;69281;-65
2022/02/24 07:32:46;;;;;;;14.50;9.60;;;;;;;0.99;79.39;98323.44;109790;1250;69464;-63
2022/02/24 07:35:15;;;;;;;15.00;10.40;;;;;;;1.11;78.86;98326.80;109607;1250;59706;-61
2022/02/24 07:37:44;;;;;;;16.90;11.60;;;;;;;1.22;78.52;98325.36;109930;1249;59741;-63
2022/02/24 07:40:14;;;;;;;17.00;10.80;;;;;;;1.27;78.46;98324.25;109892;1250;71638;-62
2022/02/24 07:42:43;;;;;;;18.50;11.70;;;;;;;1.20;77.71;98327.98;109807;1250;68673;-63
2022/02/24 07:45:14;;;;;;;17.50;10.90;;;;;;;1.12;78.07;98325.23;109761;1250;69471;-63
2022/02/24 07:47:43;;;;;;;17.40;11.90;;;;;;;1.19;77.67;98326.63;109709;1250;59696;-61
2022/02/24 07:50:15;;;;;;;17.80;11.80;;;;;;;1.03;78.12;98329.19;109657;1251;60118;-63
2022/02/24 07:52:46;;;;;;;16.20;10.30;;;;;;;1.03;78.19;98329.20;109722;1250;71372;-61
2022/02/24 07:55:17;;;;;;;15.40;10.90;;;;;;;1.02;78.70;98328.52;109707;1250;68544;-61
2022/02/24 07:57:49;;;;;;;14.40;10.20;;;;;;;0.99;78.12;98327.38;109755;1250;69231;-64
2022/02/24 08:00:20;;;;;;;18.00;12.30;;;;;;;0.99;78.21;98335.27;109793;1250;59737;-62
2022/02/24 08:02:52;;;;;;;19.80;12.40;;;;;;;0.97;78.68;98333.95;109794;1250;59701;-61
2022/02/24 08:05:23;;;;;;;19.50;12.60;;;;;;;0.89;79.06;98337.17;109870;1250;71561;-61
2022/02/24 08:07:56;;;;;;;17.80;10.00;;;;;;;0.83;79.31;98337.13;109784;1250;68527;-62
2022/02/24 08:10:26;;;;;;;18.00;12.40;;;;;;;0.93;79.71;98338.31;109766;1250;70086;-62
2022/02/24 08:12:57;;;;;;;22.20;13.20;;;;;;;0.91;79.99;98337.49;109938;1249;59685;-61
2022/02/24 08:15:30;;;;;;;19.80;11.30;;;;;;;0.85;79.95;98338.30;109624;1249;59704;-59
2022/02/24 08:18:01;;;;;;;18.80;11.70;;;;;;;0.88;79.78;98336.19;109654;1251;70741;-62
2022/02/24 08:20:30;;;;;;;19.60;11.50;;;;;;;0.81;80.54;98338.55;109834;1250;68108;-63
2022/02/24 08:23:03;;;;;;;17.60;11.70;;;;;;;0.82;80.66;98336.63;109863;1250;69513;-62
2022/02/24 08:25:33;;;;;;;21.80;13.80;;;;;;;0.85;80.99;98337.93;109872;1250;59744;-62
2022/02/24 08:28:04;;;;;;;18.70;11.30;;;;;;;0.83;81.08;98337.31;109743;1250;59637;-62
2022/02/24 08:30:33;;;;;;;23.30;13.30;;;;;;;0.91;80.67;98337.84;109725;1250;72234;-65
2022/02/24 08:33:03;;;;;;;23.80;13.00;;;;;;;0.89;80.84;98334.95;109756;1249;68781;-61
2022/02/24 08:35:34;;;;;;;16.40;11.40;;;;;;;0.99;80.59;98335.63;109936;1249;69390;-61
2022/02/24 08:38:05;;;;;;;23.20;12.90;;;;;;;1.06;80.65;98336.17;109743;1250;59771;-64
2022/02/24 08:40:34;;;;;;;20.40;12.50;;;;;;;1.12;80.22;98334.49;109742;1250;59676;-62
2022/02/24 08:43:04;;;;;;;26.70;14.70;;;;;;;1.17;80.37;98334.75;109787;1250;70790;-65
2022/02/24 08:45:35;;;;;;;23.20;14.20;;;;;;;1.10;80.38;98333.35;109896;1250;67795;-65
2022/02/24 08:48:05;;;;;;;16.70;10.50;;;;;;;1.09;81.27;98331.83;109727;1250;69948;-63
2022/02/24 08:50:35;;;;;;;17.20;10.60;;;;;;;1.26;80.05;98333.18;109765;1250;59817;-65
2022/02/24 08:53:12;;;;;;;18.80;11.60;;;;;;;1.32;80.48;98333.59;109670;1250;59700;-64
2022/02/24 08:55:41;;;;;;;23.90;14.30;;;;;;;1.41;80.49;98334.58;109839;1250;71548;-63
2022/02/24 08:58:11;;;;;;;21.90;13.60;;;;;;;1.36;80.72;98332.98;109765;1250;67861;-66
2022/02/24 09:00:47;;;;;;;23.50;13.30;;;;;;;1.30;80.31;98335.00;109845;1250;68639;-63
2022/02/24 09:03:21;;;;;;;21.30;13.20;;;;;;;1.33;80.73;98337.85;109734;1250;59672;-61
2022/02/24 09:05:54;;;;;;;22.70;13.70;;;;;;;1.33;81.03;98334.42;109742;1250;59674;-62
2022/02/24 09:08:23;;;;;;;21.20;12.60;;;;;;;1.27;80.75;98332.49;109754;1248;71594;-62
2022/02/24 09:10:53;;;;;;;25.20;14.50;;;;;;;1.32;80.74;98328.42;109718;1250;68679;-61
2022/02/24 09:13:22;;;;;;;26.10;13.70;;;;;;;1.37;80.72;98329.17;109844;1250;68855;-63
2022/02/24 09:15:51;;;;;;;22.00;13.60;;;;;;;1.43;80.23;98327.15;109839;1250;59767;-62
2022/02/24 09:18:20;;;;;;;27.40;14.20;;;;;;;1.38;80.29;98328.46;109870;1249;59719;-63
2022/02/24 09:20:50;;;;;;;22.70;14.40;;;;;;;1.37;80.37;98324.88;109832;1250;72118;-64
2022/02/24 09:23:19;;;;;;;27.20;14.50;;;;;;;1.55;80.65;98326.54;109714;1250;67837;-63
2022/02/24 09:25:49;;;;;;;24.00;13.50;;;;;;;1.60;80.40;98327.48;109800;1250;70051;-65
2022/02/24 09:28:19;;;;;;;25.20;15.20;;;;;;;1.69;80.13;98320.91;109841;1250;59716;-61
2022/02/24 09:30:48;;;;;;;25.40;14.10;;;;;;;1.82;79.04;98324.92;109731;1250;59691;-63
2022/02/24 09:33:18;;;;;;;21.50;12.90;;;;;;;1.96;78.35;98322.86;109706;1250;70633;-61
2022/02/24 09:35:48;;;;;;;18.50;12.20;;;;;;;2.14;78.24;98319.16;109707;1249;68397;-62
2022/02/24 09:38:18;;;;;;;23.50;13.10;;;;;;;2.20;77.68;98314.54;109852;1249;68617;-65
2022/02/24 09:40:53;;;;;;;25.90;15.70;;;;;;;2.38;77.33;98311.84;109850;1250;59779;-66
2022/02/24 09:43:33;;;;;;;24.30;15.30;;;;;;;2.26;77.53;98312.17;109587;1251;59719;-64
2022/02/24 09:46:08;;;;;;;26.90;15.40;;;;;;;2.17;77.36;98307.73;109782;1250;71560;-65
2022/02/24 09:48:42;;;;;;;26.50;16.80;;;;;;;2.31;77.20;98308.77;109717;1250;68613;-64
2022/02/24 09:51:15;;;;;;;20.30;12.60;;;;;;;2.37;76.21;98306.38;109815;1249;69255;-64
2022/02/24 09:53:47;;;;;;;18.60;12.40;;;;;;;2.41;75.48;98311.26;109818;1250;59705;-63
2022/02/24 09:56:21;;;;;;;20.80;14.10;;;;;;;2.52;75.69;98308.04;109838;1250;59673;-66
2022/02/24 09:58:52;;;;;;;17.60;11.70;;;;;;;2.51;74.81;98309.61;109835;1250;71423;-64
2022/02/24 10:01:23;;;;;;;20.90;12.70;;;;;;;2.54;75.00;98309.20;109815;1250;67815;-64
2022/02/24 10:03:56;;;;;;;21.10;13.60;;;;;;;2.51;73.94;98308.59;109719;1250;67710;-66
2022/02/24 10:06:35;;;;;;;17.80;11.20;;;;;;;2.43;73.98;98305.86;109746;1250;60040;-64
2022/02/24 10:09:07;;;;;;;15.60;9.90;;;;;;;2.55;74.66;98302.81;109756;1250;59712;-64
2022/02/24 10:11:41;;;;;;;17.30;10.90;;;;;;;2.68;74.82;98302.96;109809;1250;70889;-65
2022/02/24 10:14:15;;;;;;;14.90;9.30;;;;;;;2.77;74.29;98300.66;109907;1250;67827;-64
2022/02/24 10:16:54;;;;;;;17.00;9.80;;;;;;;2.91;74.17;98294.27;109868;1250;69098;-64
2022/02/24 10:19:29;;;;;;;24.70;15.40;;;;;;;3.01;73.50;98293.46;109865;1250;59871;-63
2022/02/24 10:22:34;;;;;;;22.50;12.70;;;;;;;3.01;72.15;98289.14;109813;1250;59804;-66
2022/02/24 10:25:16;;;;;;;22.20;14.80;;;;;;;3.07;72.54;98286.56;109813;1250;71515;-63
2022/02/24 10:27:52;;;;;;;25.70;14.90;;;;;;;3.21;72.77;98289.41;109840;1250;68547;-62
2022/02/24 10:30:24;;;;;;;23.50;16.10;;;;;;;3.29;72.05;98288.16;109886;1250;68689;-62
2022/02/24 10:32:55;;;;;;;20.80;14.30;;;;;;;3.24;71.03;98279.86;109716;1250;59754;-62
2022/02/24 10:35:41;;;;;;;22.60;13.70;;;;;;;3.38;70.86;98273.77;109778;1250;59675;-65
2022/02/24 10:38:15;;;;;;;20.50;14.50;;;;;;;3.44;70.23;98266.52;109777;1249;70618;-62
2022/02/24 10:40:57;;;;;;;17.10;11.70;;;;;;;3.49;70.47;98263.41;109698;1250;67654;-62
2022/02/24 10:43:39;;;;;;;26.20;13.40;;;;;;;3.44;70.34;98262.55;109745;1250;69330;-63
2022/02/24 10:46:20;;;;;;;21.30;12.20;;;;;;;3.33;70.73;98260.83;109719;1250;59687;-63
2022/02/24 10:48:58;;;;;;;21.00;12.60;;;;;;;3.22;71.53;98260.81;109832;1250;59730;-64
2022/02/24 10:51:36;;;;;;;19.70;13.70;;;;;;;3.22;71.56;98259.77;109725;1250;71462;-64
2022/02/24 10:54:28;;;;;;;25.00;14.60;;;;;;;3.21;70.56;98257.55;109655;1250;67921;-62
2022/02/24 10:57:27;;;;;;;21.20;14.70;;;;;;;3.24;70.44;98253.34;109788;1250;68701;-65
2022/02/24 11:00:06;;;;;;;19.70;13.90;;;;;;;3.22;68.44;98256.49;109776;1250;59666;-61
2022/02/24 11:02:40;;;;;;;19.80;12.70;;;;;;;3.40;69.13;98253.54;109611;1250;59754;-62
2022/02/24 11:05:30;;;;;;;18.10;12.40;;;;;;;3.46;68.02;98250.41;109792;1250;72041;-61
2022/02/24 11:08:10;;;;;;;21.30;13.60;;;;;;;3.55;67.66;98251.02;109783;1250;68265;-61
2022/02/24 11:10:49;;;;;;;20.90;11.90;;;;;;;3.67;68.00;98247.70;109719;1249;68757;-64
2022/02/24 11:13:31;;;;;;;20.80;14.20;;;;;;;3.56;67.92;98250.13;109796;1249;59803;-66
2022/02/24 11:16:17;;;;;;;22.50;13.40;;;;;;;3.52;68.43;98246.47;109788;1250;59651;-62
2022/02/24 11:19:00;;;;;;;20.20;13.30;;;;;;;3.63;67.37;98241.61;109671;1250;70430;-62
2022/02/24 11:21:47;;;;;;;18.50;12.10;;;;;;;3.78;68.03;98238.89;109675;1250;66820;-62
2022/02/24 11:24:31;;;;;;;19.80;13.20;;;;;;;3.93;67.52;98240.98;109864;1250;69562;-63
2022/02/24 11:27:25;;;;;;;24.40;14.30;;;;;;;3.99;66.28;98241.33;109629;1250;59779;-66
2022/02/24 11:30:05;;;;;;;20.60;13.90;;;;;;;3.87;66.05;98239.28;109737;1250;59749;-63
2022/02/24 11:32:52;;;;;;;17.10;10.70;;;;;;;3.77;65.58;98233.59;109828;1249;71531;-67
2022/02/24 11:35:32;;;;;;;19.50;12.90;;;;;;;3.92;66.33;98234.48;109653;1250;67797;-63
2022/02/24 11:38:18;;;;;;;21.30;13.30;;;;;;;3.96;64.97;98228.67;109707;1250;68857;-64
2022/02/24 11:41:09;;;;;;;22.30;14.00;;;;;;;3.97;65.73;98230.50;109995;1250;59748;-65
2022/02/24 11:43:54;;;;;;;17.00;11.10;;;;;;;4.14;65.14;98228.39;109862;1250;59705;-63
2022/02/24 11:46:59;;;;;;;14.10;9.30;;;;;;;4.47;64.97;98230.86;109801;1249;71551;-64